createdAt,value
2022-10-21T00:02:51.603Z,100724.00
2022-10-21T00:08:14.861Z,100708.94
2022-10-21T00:13:40.479Z,100714.63
2022-10-21T00:19:03.491Z,100731.00
2022-10-21T00:24:26.854Z,100728.47
2022-10-21T00:29:51.332Z,100718.63
2022-10-21T00:35:14.390Z,100706.31
2022-10-21T00:40:37.411Z,100711.88
2022-10-21T00:46:04.651Z,100727.63
2022-10-21T00:51:27.870Z,100724.06
2022-10-21T00:56:52.822Z,100711.59
2022-10-21T01:02:17.412Z,100706.53
2022-10-21T01:07:41.456Z,100708.06
2022-10-21T01:13:18.395Z,100692.00
2022-10-21T01:18:48.732Z,100708.25
2022-10-21T01:24:48.974Z,100713.00
2022-10-21T01:30:31.753Z,100709.44
2022-10-21T01:35:59.017Z,100694.88
2022-10-21T01:41:28.226Z,100671.50
2022-10-21T01:46:57.912Z,100652.53
2022-10-21T01:52:21.713Z,100665.84
2022-10-21T01:57:49.066Z,100647.53
2022-10-21T02:03:17.229Z,100633.28
2022-10-21T02:08:40.306Z,100625.09
2022-10-21T02:14:05.495Z,100635.25
2022-10-21T02:24:56.273Z,100621.19
2022-10-21T02:30:19.734Z,100603.09
2022-10-21T02:35:47.601Z,100620.91
2022-10-21T02:41:12.116Z,100611.34
2022-10-21T02:46:37.731Z,100605.13
2022-10-21T02:52:02.154Z,100610.25
2022-10-21T02:57:25.269Z,100617.00
2022-10-21T03:02:48.357Z,100614.09
2022-10-21T03:08:12.812Z,100606.19
2022-10-21T03:13:35.849Z,100600.84
2022-10-21T03:18:58.930Z,100606.69
2022-10-21T03:24:28.462Z,100603.13
2022-10-21T03:29:52.128Z,100593.69
2022-10-21T03:35:15.354Z,100598.53
2022-10-21T03:40:39.794Z,100591.91
2022-10-21T03:46:02.884Z,100591.28
2022-10-21T03:51:25.905Z,100582.34
2022-10-21T03:56:50.517Z,100582.72
2022-10-21T04:02:13.567Z,100569.72
2022-10-21T04:07:36.771Z,100563.41
2022-10-21T04:13:01.221Z,100556.88
2022-10-21T04:18:24.463Z,100562.94
2022-10-21T04:23:47.504Z,100554.03
2022-10-21T04:29:11.973Z,100563.84
2022-10-21T04:34:35.014Z,100550.13
2022-10-21T04:39:58.263Z,100544.09
2022-10-21T04:45:22.698Z,100549.66
2022-10-21T04:50:45.825Z,100559.91
2022-10-21T04:56:08.950Z,100563.09
2022-10-21T05:01:33.468Z,100566.38
2022-10-21T05:06:56.750Z,100572.47
2022-10-21T05:12:19.823Z,100569.97
2022-10-21T05:17:44.342Z,100570.03
2022-10-21T05:23:08.408Z,100568.97
2022-10-21T05:28:31.518Z,100567.41
2022-10-21T05:33:55.899Z,100550.97
2022-10-21T05:39:18.924Z,100577.41
2022-10-21T05:44:41.917Z,100592.59
2022-10-21T05:50:10.205Z,100592.28
2022-10-21T05:55:33.321Z,100592.44
2022-10-21T06:00:58.084Z,100590.41
2022-10-21T06:06:22.623Z,100589.44
2022-10-21T06:11:45.696Z,100592.09
2022-10-21T06:17:08.758Z,100596.34
2022-10-21T06:22:33.172Z,100602.50
2022-10-21T06:27:56.271Z,100593.09
2022-10-21T06:33:23.331Z,100585.47
2022-10-21T06:38:51.334Z,100588.75
2022-10-21T06:44:14.461Z,100589.25
2022-10-21T06:49:37.558Z,100595.34
2022-10-21T06:55:02.065Z,100608.53
2022-10-21T07:00:25.243Z,100602.19
2022-10-21T07:05:48.436Z,100604.53
2022-10-21T07:11:14.314Z,100597.38
2022-10-21T07:16:37.821Z,100599.19
2022-10-21T07:22:01.339Z,100585.94
2022-10-21T07:27:25.828Z,100581.16
2022-10-21T07:32:48.953Z,100587.38
2022-10-21T07:38:12.341Z,100586.16
2022-10-21T07:43:36.873Z,100600.88
2022-10-21T07:49:00.896Z,100598.84
2022-10-21T07:54:23.930Z,100593.84
2022-10-21T07:59:48.449Z,100626.44
2022-10-21T08:05:11.524Z,100646.47
2022-10-21T08:10:40.392Z,100639.09
2022-10-21T08:16:06.694Z,100636.44
2022-10-21T08:21:31.139Z,100636.81
2022-10-21T08:26:54.626Z,100637.44
2022-10-21T08:32:19.090Z,100643.00
2022-10-21T08:37:42.118Z,100635.13
2022-10-21T08:43:08.526Z,100645.63
2022-10-21T08:48:36.401Z,100625.53
2022-10-21T08:54:04.499Z,100630.41
2022-10-21T08:59:27.924Z,100620.22
2022-10-21T09:04:57.212Z,100631.06
2022-10-21T09:10:25.443Z,100630.34
2022-10-21T09:15:56.675Z,100639.63
2022-10-21T09:21:26.333Z,100619.81
2022-10-21T09:26:52.396Z,100611.50
2022-10-21T09:32:17.881Z,100612.00
2022-10-21T09:37:45.642Z,100618.81
2022-10-21T09:43:17.447Z,100621.28
2022-10-21T09:49:14.439Z,100620.44
2022-10-21T09:54:34.386Z,100605.50
2022-10-21T10:00:00.413Z,100621.06
2022-10-21T10:05:38.356Z,100623.53
2022-10-21T10:11:13.953Z,100627.47
2022-10-21T10:16:37.322Z,100629.47
2022-10-21T10:22:12.854Z,100628.44
2022-10-21T10:27:37.510Z,100633.78
2022-10-21T10:33:07.930Z,100631.19
2022-10-21T10:38:35.316Z,100623.22
2022-10-21T10:43:59.834Z,100624.72
2022-10-21T10:49:23.413Z,100632.72
2022-10-21T10:54:46.452Z,100642.78
2022-10-21T11:00:17.417Z,100629.00
2022-10-21T11:06:07.111Z,100635.69
2022-10-21T11:11:39.941Z,100618.72
2022-10-21T11:17:11.490Z,100597.06
2022-10-21T11:22:43.068Z,100608.25
2022-10-21T11:28:13.970Z,100610.94
2022-10-21T11:33:46.242Z,100599.91
2022-10-21T11:39:30.332Z,100613.94
2022-10-21T11:45:06.202Z,100593.41
2022-10-21T11:50:38.615Z,100577.72
2022-10-21T11:56:09.385Z,100574.84
2022-10-21T12:01:43.390Z,100586.00
2022-10-21T12:07:15.552Z,100591.25
2022-10-21T12:12:40.622Z,100575.44
2022-10-21T12:18:04.816Z,100564.91
2022-10-21T12:23:34.110Z,100567.97
2022-10-21T12:29:01.966Z,100579.97
2022-10-21T12:34:25.467Z,100580.91
2022-10-21T12:39:51.393Z,100595.66
2022-10-21T12:45:27.560Z,100600.81
2022-10-21T12:50:57.236Z,100590.38
2022-10-21T12:56:33.091Z,100594.81
2022-10-21T13:02:25.586Z,100593.31
2022-10-21T13:08:24.453Z,100595.25
2022-10-21T13:13:49.984Z,100592.97
2022-10-21T13:19:37.283Z,100603.34
2022-10-21T13:25:11.610Z,100600.44
2022-10-21T13:30:37.867Z,100592.53
2022-10-21T13:36:02.804Z,100604.81
2022-10-21T13:41:27.706Z,100587.25
2022-10-21T13:46:52.179Z,100591.50
2022-10-21T13:52:15.333Z,100579.97
2022-10-21T13:57:38.733Z,100603.59
2022-10-21T14:03:05.285Z,100600.50
2022-10-21T14:08:30.120Z,100611.84
2022-10-21T14:13:54.763Z,100612.97
2022-10-21T14:19:22.201Z,100620.91
2022-10-21T14:24:53.045Z,100614.09
2022-10-21T14:30:19.539Z,100618.06
2022-10-21T14:35:44.039Z,100614.09
2022-10-21T14:41:16.451Z,100619.47
2022-10-21T14:46:44.275Z,100618.81
2022-10-21T14:52:15.792Z,100610.88
2022-10-21T14:57:41.737Z,100617.03
2022-10-21T15:03:07.627Z,100624.41
2022-10-21T15:08:32.495Z,100619.47
2022-10-21T15:14:20.690Z,100607.50
2022-10-21T15:19:48.759Z,100616.84
2022-10-21T15:25:18.861Z,100622.03
2022-10-21T15:30:42.443Z,100624.69
2022-10-21T15:36:08.569Z,100622.88
2022-10-21T15:41:33.253Z,100626.09
2022-10-21T15:47:00.673Z,100628.16
2022-10-21T15:52:24.643Z,100630.88
2022-10-21T15:57:51.264Z,100633.53
2022-10-21T16:03:14.386Z,100633.66
2022-10-21T16:08:37.514Z,100637.38
2022-10-21T16:14:01.971Z,100639.66
2022-10-21T16:19:25.069Z,100652.13
2022-10-21T16:24:48.110Z,100654.56
2022-10-21T16:30:21.284Z,100655.84
2022-10-21T16:35:48.557Z,100656.31
2022-10-21T16:41:13.250Z,100657.72
2022-10-21T16:46:39.282Z,100662.94
2022-10-21T16:52:02.369Z,100675.44
2022-10-21T16:57:25.452Z,100674.66
2022-10-21T17:02:51.217Z,100683.84
2022-10-21T17:08:14.357Z,100678.88
2022-10-21T17:13:37.410Z,100687.72
2022-10-21T17:19:01.895Z,100687.34
2022-10-21T17:24:25.786Z,100691.28
2022-10-21T17:29:48.888Z,100698.50
2022-10-21T17:35:18.624Z,100700.91
2022-10-21T17:40:41.765Z,100701.28
2022-10-21T17:46:05.054Z,100703.38
2022-10-21T17:51:30.273Z,100700.88
2022-10-21T17:56:53.342Z,100708.16
2022-10-21T18:02:16.451Z,100702.09
2022-10-21T18:07:41.086Z,100690.88
2022-10-21T18:13:04.643Z,100694.34
2022-10-21T18:18:31.058Z,100696.19
2022-10-21T18:23:55.892Z,100697.59
2022-10-21T18:29:19.261Z,100695.56
2022-10-21T18:34:42.578Z,100699.06
2022-10-21T18:40:08.774Z,100701.59
2022-10-21T18:45:31.908Z,100702.53
2022-10-21T18:50:54.993Z,100699.75
2022-10-21T18:56:20.196Z,100705.88
2022-10-21T19:01:46.406Z,100705.38
2022-10-21T19:07:11.754Z,100700.25
2022-10-21T19:12:36.171Z,100690.28
2022-10-21T19:17:59.219Z,100700.31
2022-10-21T19:23:22.277Z,100698.78
2022-10-21T19:28:46.712Z,100696.41
2022-10-21T19:34:12.790Z,100706.84
2022-10-21T19:39:36.035Z,100711.22
2022-10-21T19:45:00.528Z,100722.19
2022-10-21T19:50:23.620Z,100722.66
2022-10-21T19:55:46.681Z,100730.84
2022-10-21T20:01:12.717Z,100728.88
2022-10-21T20:06:38.820Z,100725.22
2022-10-21T20:12:01.927Z,100725.75
2022-10-21T20:17:26.468Z,100722.03
2022-10-21T20:22:49.620Z,100732.13
2022-10-21T20:28:15.253Z,100743.03
2022-10-21T20:33:42.122Z,100722.06
2022-10-21T20:39:05.402Z,100743.03
2022-10-21T20:44:28.461Z,100743.53
2022-10-21T20:49:52.889Z,100745.66
2022-10-21T20:55:16.010Z,100743.38
2022-10-21T21:00:40.620Z,100744.50
2022-10-21T21:06:08.039Z,100748.16
2022-10-21T21:11:31.468Z,100757.34
2022-10-21T21:16:55.628Z,100755.50
2022-10-21T21:22:21.020Z,100763.34
2022-10-21T21:27:44.074Z,100772.94
2022-10-21T21:33:07.119Z,100765.19
2022-10-21T21:38:32.887Z,100730.41
2022-10-21T21:43:56.683Z,100769.19
2022-10-21T21:49:19.738Z,100768.59
2022-10-21T21:54:44.138Z,100775.78
2022-10-21T22:00:11.106Z,100778.59
2022-10-21T22:05:34.320Z,100773.53
2022-10-21T22:11:03.771Z,100775.44
2022-10-21T22:16:30.070Z,100780.97
2022-10-21T22:21:53.375Z,100784.19
2022-10-21T22:27:17.880Z,100791.94
2022-10-21T22:32:41.010Z,100789.38
2022-10-21T22:38:04.118Z,100785.75
2022-10-21T22:43:28.928Z,100786.16
2022-10-21T22:48:52.040Z,100789.50
2022-10-21T22:54:36.068Z,100795.78
2022-10-21T22:59:59.569Z,100795.75
2022-10-21T23:05:22.937Z,100776.59
2022-10-21T23:10:48.584Z,100775.69
2022-10-21T23:16:13.031Z,100779.97
2022-10-21T23:21:36.416Z,100774.38
2022-10-21T23:27:01.369Z,100775.66
2022-10-21T23:32:26.057Z,100765.97
2022-10-21T23:37:49.228Z,100773.16
2022-10-21T23:43:12.376Z,100773.94
2022-10-21T23:48:36.804Z,100769.13
2022-10-21T23:53:59.867Z,100771.16
2022-10-21T23:59:22.939Z,100769.66
